Time;durP1;ratioP1;P1;durP2;ratioP2;P2;SDS_P1;SDS_P2;PMS_P1;PMS_P2;Temp;Humidity;BMP_temperature;BMP_pressure;BME280_temperature;BME280_humidity;BME280_pressure;Samples;Min_cycle;Max_cycle;Signal;HPM_P1;HPM_P2
2022/12/12 05:30:47;;;;;;;11.20;6.00;;;4.00;81.50;;;;;;5740064;23;20059;-79
2022/12/12 05:33:13;;;;;;;9.13;6.15;;;3.80;81.30;;;;;;4976499;28;20113;-79
2022/12/12 05:35:40;;;;;;;8.88;5.43;;;3.80;81.30;;;;;;4958280;29;20554;-79
2022/12/12 05:38:06;;;;;;;6.07;4.53;;;3.80;81.70;;;;;;4959920;28;20114;-79
2022/12/12 05:40:32;;;;;;;14.23;6.85;;;3.80;81.50;;;;;;4959940;29;20024;-78
2022/12/12 05:42:57;;;;;;;11.85;7.38;;;3.90;81.60;;;;;;4961130;28;20038;-80
2022/12/12 05:45:23;;;;;;;11.85;6.65;;;3.90;81.50;;;;;;4961361;28;20537;-79
2022/12/12 05:47:49;;;;;;;16.40;7.00;;;3.90;81.40;;;;;;4978565;28;20027;-79
2022/12/12 05:50:15;;;;;;;12.23;6.72;;;4.00;81.30;;;;;;4961426;28;20047;-79
2022/12/12 05:52:42;;;;;;;12.15;8.30;;;4.00;81.10;;;;;;4966638;28;20031;-80
2022/12/12 05:55:08;;;;;;;13.15;7.88;;;4.00;81.30;;;;;;4942593;29;20479;-81
2022/12/12 05:57:34;;;;;;;15.27;8.25;;;4.00;81.20;;;;;;4957510;28;20023;-82
2022/12/12 05:59:59;;;;;;;13.45;7.47;;;4.00;81.10;;;;;;4959431;29;20035;-81
2022/12/12 06:02:25;;;;;;;10.63;6.05;;;4.10;81.20;;;;;;4970181;28;20014;-82
2022/12/12 06:04:51;;;;;;;12.77;6.90;;;4.10;81.00;;;;;;4978880;28;20035;-80
2022/12/12 06:07:16;;;;;;;13.05;6.15;;;4.00;81.10;;;;;;4978828;28;20026;-81
2022/12/12 06:09:54;;;;;;;14.55;7.03;;;4.00;81.20;;;;;;4957839;29;20444;-85
2022/12/12 06:12:20;;;;;;;12.90;6.25;;;3.90;81.30;;;;;;4974827;28;20031;-79
2022/12/12 06:14:46;;;;;;;20.25;8.55;;;3.90;81.50;;;;;;4961262;28;20514;-79
2022/12/12 06:17:11;;;;;;;15.30;8.93;;;3.90;81.60;;;;;;4957834;29;20027;-78
2022/12/12 06:19:37;;;;;;;13.73;7.82;;;3.90;81.40;;;;;;4964940;28;20114;-78
2022/12/12 06:22:03;;;;;;;13.00;7.80;;;3.90;81.30;;;;;;4964263;28;20027;-78
2022/12/12 06:24:28;;;;;;;13.82;7.70;;;3.90;81.20;;;;;;4976577;28;20088;-79
2022/12/12 06:26:56;;;;;;;11.40;6.22;;;3.70;81.50;;;;;;4978113;28;20037;-77
2022/12/12 06:29:22;;;;;;;15.30;7.75;;;3.80;81.60;;;;;;4959924;28;20035;-77
2022/12/12 06:31:48;;;;;;;11.23;6.82;;;3.80;81.80;;;;;;4974905;28;20054;-77
2022/12/12 06:34:13;;;;;;;15.57;8.05;;;3.90;81.50;;;;;;4977027;28;20454;-78
2022/12/12 06:36:40;;;;;;;9.48;5.72;;;3.80;81.40;;;;;;4969035;28;20049;-78
2022/12/12 06:39:06;;;;;;;10.18;6.20;;;3.80;81.50;;;;;;4985434;28;20018;-77
2022/12/12 06:41:32;;;;;;;12.35;6.93;;;3.90;81.60;;;;;;4964271;28;20023;-77
2022/12/12 06:43:58;;;;;;;14.13;7.07;;;3.80;81.40;;;;;;4960284;28;20078;-77
2022/12/12 06:46:26;;;;;;;12.20;7.28;;;3.90;81.50;;;;;;4977282;28;20023;-78
2022/12/12 06:48:53;;;;;;;13.10;8.23;;;3.80;81.30;;;;;;4978064;28;20035;-78
2022/12/12 06:51:22;;;;;;;9.85;6.28;;;3.70;81.20;;;;;;4959555;28;20058;-82
2022/12/12 06:53:49;;;;;;;16.38;8.75;;;3.60;81.60;;;;;;4976824;28;20487;-82
2022/12/12 06:56:17;;;;;;;12.27;7.18;;;3.60;82.10;;;;;;4978189;28;20506;-82
2022/12/12 06:58:43;;;;;;;11.73;7.13;;;3.70;82.00;;;;;;4960876;28;20034;-81
2022/12/12 07:01:13;;;;;;;11.75;7.30;;;3.70;82.00;;;;;;4975639;28;20031;-79
2022/12/12 07:03:39;;;;;;;13.63;8.23;;;3.70;81.70;;;;;;4974346;28;20070;-80
2022/12/12 07:06:06;;;;;;;15.15;7.15;;;3.70;81.80;;;;;;4976721;28;20528;-81
2022/12/12 07:08:33;;;;;;;13.70;7.57;;;3.80;81.80;;;;;;4977839;28;20030;-80
2022/12/12 07:11:12;;;;;;;12.38;6.95;;;3.90;81.50;;;;;;4977361;28;20034;-80
2022/12/12 07:13:38;;;;;;;13.30;7.18;;;3.80;81.50;;;;;;4976018;28;20066;-80
2022/12/12 07:16:04;;;;;;;15.48;8.05;;;3.70;81.70;;;;;;4977236;28;20026;-80
2022/12/12 07:18:29;;;;;;;11.90;6.70;;;3.60;82.20;;;;;;4978776;28;20509;-83
2022/12/12 07:20:55;;;;;;;12.38;8.23;;;3.50;82.00;;;;;;4977785;28;20030;-80
2022/12/12 07:23:21;;;;;;;15.10;7.68;;;3.60;82.10;;;;;;4978045;28;20038;-84
2022/12/12 07:25:47;;;;;;;14.98;7.60;;;3.60;82.00;;;;;;4977635;28;20047;-79
2022/12/12 07:28:13;;;;;;;11.80;6.95;;;3.50;82.10;;;;;;4953856;28;20085;-79
2022/12/12 07:30:41;;;;;;;18.15;7.95;;;3.50;82.10;;;;;;4976209;28;20069;-81
2022/12/12 07:33:07;;;;;;;17.25;7.53;;;3.50;82.10;;;;;;4981771;28;20073;-81
2022/12/12 07:35:33;;;;;;;24.58;10.65;;;3.50;82.10;;;;;;4961477;28;20031;-79
2022/12/12 07:37:59;;;;;;;13.63;7.18;;;3.40;82.40;;;;;;4949003;29;20046;-80
2022/12/12 07:40:25;;;;;;;17.25;7.10;;;3.20;82.20;;;;;;4966311;28;20158;-80
2022/12/12 07:42:51;;;;;;;15.73;7.75;;;3.20;83.00;;;;;;4977202;28;20026;-80
2022/12/12 07:45:16;;;;;;;12.60;7.20;;;3.30;82.90;;;;;;4953258;28;20030;-80
2022/12/12 07:47:42;;;;;;;20.17;8.88;;;3.30;82.50;;;;;;4977438;28;20403;-80
2022/12/12 07:50:09;;;;;;;16.83;7.20;;;3.30;82.60;;;;;;4957912;28;20031;-80
2022/12/12 07:52:35;;;;;;;15.68;8.70;;;3.20;82.70;;;;;;4976831;28;20064;-79
2022/12/12 07:55:01;;;;;;;11.05;6.35;;;3.20;82.90;;;;;;4976446;28;20532;-80
2022/12/12 07:57:28;;;;;;;12.88;7.18;;;3.10;82.80;;;;;;4975843;28;20037;-80
2022/12/12 07:59:53;;;;;;;14.07;7.22;;;3.00;83.10;;;;;;4976847;28;20030;-80
2022/12/12 08:02:19;;;;;;;18.70;8.98;;;3.00;83.10;;;;;;4972623;28;20034;-80
2022/12/12 08:04:45;;;;;;;13.85;7.13;;;2.90;83.10;;;;;;4976220;28;20055;-79
2022/12/12 08:07:11;;;;;;;13.18;7.68;;;2.90;83.60;;;;;;4976692;28;20029;-79
2022/12/12 08:09:39;;;;;;;14.00;8.27;;;2.90;83.50;;;;;;4975571;28;20031;-82
2022/12/12 08:12:05;;;;;;;10.30;6.20;;;2.90;83.60;;;;;;4968614;28;20093;-77
2022/12/12 08:14:31;;;;;;;14.70;8.40;;;2.80;83.90;;;;;;4967207;28;20066;-80
2022/12/12 08:16:57;;;;;;;17.17;8.00;;;2.90;84.00;;;;;;4959246;28;20026;-77
2022/12/12 08:19:23;;;;;;;14.70;8.00;;;3.00;83.80;;;;;;4975632;28;20031;-77
2022/12/12 08:21:48;;;;;;;7.28;5.65;;;3.10;83.10;;;;;;4974695;28;20109;-77
2022/12/12 08:24:15;;;;;;;12.80;7.47;;;3.20;82.60;;;;;;4991478;28;20390;-77
2022/12/12 08:26:42;;;;;;;12.40;7.40;;;3.10;82.70;;;;;;4962386;28;20086;-77
2022/12/12 08:29:09;;;;;;;13.50;5.90;;;3.10;82.70;;;;;;4958843;28;20031;-77
2022/12/12 08:31:36;;;;;;;13.55;7.38;;;3.10;82.80;;;;;;4975686;28;20518;-76
2022/12/12 08:34:02;;;;;;;13.95;7.43;;;3.00;83.10;;;;;;4964753;28;20502;-77
2022/12/12 08:36:30;;;;;;;9.15;6.00;;;3.10;83.00;;;;;;4955217;29;20042;-77
2022/12/12 08:38:57;;;;;;;11.00;6.93;;;3.00;83.00;;;;;;4956372;29;20027;-77
2022/12/12 08:41:24;;;;;;;9.10;5.50;;;3.00;82.90;;;;;;4974207;28;20023;-77
2022/12/12 08:43:50;;;;;;;16.92;7.85;;;2.90;83.00;;;;;;4959237;28;20380;-77
2022/12/12 08:46:18;;;;;;;14.07;6.43;;;2.80;83.50;;;;;;4958555;28;20097;-77
2022/12/12 08:48:44;;;;;;;11.95;4.57;;;2.90;83.30;;;;;;4976190;28;20043;-76
2022/12/12 08:51:10;;;;;;;4.40;4.00;;;2.80;83.10;;;;;;4976418;28;20077;-77
2022/12/12 08:53:36;;;;;;;12.30;7.03;;;2.80;83.20;;;;;;4959357;28;20031;-77
2022/12/12 08:56:01;;;;;;;12.50;7.03;;;2.80;83.30;;;;;;4975808;28;20042;-77
2022/12/12 08:58:27;;;;;;;13.57;8.32;;;2.80;83.50;;;;;;4959195;28;20118;-77
2022/12/12 09:00:53;;;;;;;12.95;8.15;;;2.70;83.60;;;;;;4976199;28;20026;-77
2022/12/12 09:03:19;;;;;;;10.63;5.80;;;2.70;83.50;;;;;;4959186;28;20023;-77
2022/12/12 09:05:45;;;;;;;10.32;6.30;;;2.50;83.40;;;;;;4963659;28;20055;-77
2022/12/12 09:08:12;;;;;;;11.15;6.65;;;2.50;83.40;;;;;;4976119;28;20031;-77
2022/12/12 09:10:39;;;;;;;16.75;8.18;;;2.50;83.30;;;;;;4975407;28;20532;-77
2022/12/12 09:13:06;;;;;;;19.83;8.60;;;2.60;83.40;;;;;;4976413;28;20034;-77
2022/12/12 09:15:36;;;;;;;11.80;7.72;;;2.50;83.20;;;;;;4975843;28;20034;-77
2022/12/12 09:18:02;;;;;;;14.02;7.15;;;2.50;83.50;;;;;;4975666;28;20039;-77
2022/12/12 09:20:28;;;;;;;16.75;7.47;;;2.50;83.80;;;;;;4975803;28;20031;-77
2022/12/12 09:22:53;;;;;;;22.70;9.63;;;2.50;83.60;;;;;;4976907;28;20027;-77
2022/12/12 09:25:20;;;;;;;18.23;8.00;;;2.60;83.60;;;;;;4976381;28;20042;-77
2022/12/12 09:27:46;;;;;;;6.18;4.70;;;2.70;83.80;;;;;;4976263;28;20113;-78
2022/12/12 09:30:13;;;;;;;12.05;7.20;;;2.60;83.00;;;;;;4943845;29;20123;-78
2022/12/12 09:32:38;;;;;;;19.77;9.55;;;2.50;83.50;;;;;;4956861;28;20399;-78
2022/12/12 09:35:04;;;;;;;17.65;9.30;;;2.50;83.40;;;;;;4960046;29;20031;-78
2022/12/12 09:37:30;;;;;;;12.85;7.03;;;2.50;83.60;;;;;;4942713;28;20027;-78
2022/12/12 09:39:56;;;;;;;13.75;7.32;;;2.70;82.90;;;;;;4979114;28;20062;-78
2022/12/12 09:42:28;;;;;;;18.30;9.27;;;2.60;83.20;;;;;;4977727;28;20386;-79
2022/12/12 09:45:04;;;;;;;8.63;6.18;;;2.70;83.00;;;;;;4979379;28;20026;-78
2022/12/12 09:47:41;;;;;;;20.33;9.63;;;2.70;83.10;;;;;;4979394;28;20023;-78
2022/12/12 09:50:25;;;;;;;7.95;5.95;;;2.60;82.50;;;;;;4987249;28;20030;-78
2022/12/12 09:52:52;;;;;;;14.15;7.70;;;2.50;82.70;;;;;;4981079;28;20022;-78
2022/12/12 09:55:36;;;;;;;17.45;9.57;;;2.40;82.70;;;;;;4980330;28;20065;-78
2022/12/12 09:58:14;;;;;;;12.93;6.80;;;2.40;82.90;;;;;;4942600;29;20349;-79
2022/12/12 10:00:51;;;;;;;14.43;9.15;;;2.40;82.40;;;;;;4970213;28;20034;-79
2022/12/12 10:03:47;;;;;;;15.60;7.43;;;2.40;82.60;;;;;;4978766;28;20031;-79
2022/12/12 10:06:16;;;;;;;14.27;8.98;;;2.50;82.40;;;;;;4977339;28;20037;-79
2022/12/12 10:08:52;;;;;;;15.55;8.38;;;2.40;82.50;;;;;;4978248;28;20026;-79
2022/12/12 10:11:49;;;;;;;12.25;7.78;;;2.40;82.50;;;;;;4961250;28;20063;-79
2022/12/12 10:14:18;;;;;;;15.68;7.90;;;2.40;82.20;;;;;;4976297;28;20039;-79
2022/12/12 10:16:45;;;;;;;13.35;7.78;;;2.30;82.40;;;;;;4976809;28;20065;-79
2022/12/12 10:19:20;;;;;;;8.38;6.10;;;2.50;82.30;;;;;;4977239;28;20518;-79
2022/12/12 10:21:48;;;;;;;11.50;6.50;;;2.40;81.30;;;;;;4978381;28;20089;-79
2022/12/12 10:24:41;;;;;;;8.52;5.20;;;2.40;81.70;;;;;;4993861;28;20014;-79
2022/12/12 10:27:12;;;;;;;19.80;8.70;;;2.60;81.80;;;;;;4998110;28;20082;-79
2022/12/12 10:29:44;;;;;;;12.40;5.72;;;2.60;81.20;;;;;;4972717;28;20027;-79
2022/12/12 10:32:25;;;;;;;13.65;7.45;;;2.50;81.20;;;;;;4973293;28;20085;-79
2022/12/12 10:34:53;;;;;;;8.48;5.88;;;2.50;80.90;;;;;;4961219;28;20109;-79
2022/12/12 10:37:37;;;;;;;17.95;9.57;;;2.50;81.20;;;;;;4978313;28;20103;-79
2022/12/12 10:40:14;;;;;;;15.77;9.35;;;2.40;81.10;;;;;;4951575;29;20073;-79
2022/12/12 10:42:56;;;;;;;11.00;7.63;;;2.60;81.60;;;;;;4958705;28;20062;-79
2022/12/12 10:45:47;;;;;;;12.07;7.72;;;2.80;81.20;;;;;;4977847;28;20093;-79
2022/12/12 10:48:13;;;;;;;13.68;8.50;;;2.80;80.20;;;;;;4977679;28;20034;-79
2022/12/12 10:50:49;;;;;;;22.20;11.13;;;2.70;80.50;;;;;;4977461;28;20045;-78
2022/12/12 10:53:16;;;;;;;17.80;9.27;;;2.70;80.60;;;;;;4978278;28;20058;-78
2022/12/12 10:56:05;;;;;;;11.27;7.85;;;2.70;80.70;;;;;;4977523;28;20431;-79
2022/12/12 10:58:42;;;;;;;22.70;11.18;;;2.80;80.60;;;;;;4960204;28;20130;-79
2022/12/12 11:01:19;;;;;;;21.13;11.23;;;2.60;80.50;;;;;;4977823;28;20486;-78
2022/12/12 11:03:50;;;;;;;29.13;15.63;;;2.50;81.20;;;;;;4977550;28;20027;-79
2022/12/12 11:06:28;;;;;;;17.55;11.30;;;2.50;81.20;;;;;;4959234;28;20019;-78
2022/12/12 11:08:57;;;;;;;22.58;9.60;;;2.50;81.30;;;;;;4956685;29;20083;-79
2022/12/12 11:11:27;;;;;;;28.40;13.20;;;2.50;81.30;;;;;;4967916;28;20065;-79
2022/12/12 11:13:55;;;;;;;21.35;11.50;;;2.60;81.40;;;;;;4977700;28;20062;-78
2022/12/12 11:16:28;;;;;;;23.08;14.00;;;2.70;81.10;;;;;;4959347;28;20091;-79
2022/12/12 11:18:59;;;;;;;24.85;14.63;;;2.80;80.80;;;;;;4963123;28;20027;-78
2022/12/12 11:21:25;;;;;;;23.65;12.95;;;2.80;80.20;;;;;;4977458;28;20030;-79
2022/12/12 11:23:56;;;;;;;23.55;11.82;;;2.70;80.10;;;;;;4971867;28;20026;-80
2022/12/12 11:26:23;;;;;;;21.50;12.57;;;2.50;80.30;;;;;;4979174;28;20098;-79
2022/12/12 11:29:01;;;;;;;22.77;12.57;;;2.50;80.30;;;;;;4980517;28;20398;-79
2022/12/12 11:31:31;;;;;;;28.98;13.95;;;2.40;80.10;;;;;;4959460;28;20062;-79
2022/12/12 11:34:03;;;;;;;22.88;15.55;;;2.40;80.30;;;;;;4977343;28;20026;-78
2022/12/12 11:36:34;;;;;;;21.05;11.75;;;2.30;80.40;;;;;;4977277;28;20023;-79
2022/12/12 11:39:10;;;;;;;29.92;17.67;;;2.30;80.10;;;;;;4977200;28;20035;-79
2022/12/12 11:41:56;;;;;;;28.58;18.23;;;2.40;80.40;;;;;;4976712;28;20046;-79
2022/12/12 11:44:24;;;;;;;29.02;16.17;;;2.40;80.30;;;;;;4977407;28;20050;-79
2022/12/12 11:46:50;;;;;;;28.58;15.68;;;2.60;80.20;;;;;;4976989;28;20030;-79
2022/12/12 11:49:18;;;;;;;26.20;14.50;;;2.50;79.90;;;;;;4959858;28;20823;-79
2022/12/12 11:51:44;;;;;;;21.27;13.73;;;2.50;79.90;;;;;;4977297;28;20034;-79
2022/12/12 11:54:28;;;;;;;26.00;13.90;;;2.50;80.10;;;;;;4960897;28;20103;-80
2022/12/12 11:57:02;;;;;;;31.10;18.08;;;2.50;79.90;;;;;;4962111;28;20062;-80
2022/12/12 11:59:39;;;;;;;23.48;15.45;;;2.50;79.90;;;;;;4965777;28;20061;-78
2022/12/12 12:02:14;;;;;;;30.90;18.58;;;2.60;80.00;;;;;;4957809;29;20054;-77
2022/12/12 12:05:21;;;;;;;25.80;15.90;;;2.60;79.70;;;;;;4968891;28;20055;-78
2022/12/12 12:07:56;;;;;;;21.02;14.00;;;2.70;79.70;;;;;;4976980;28;20037;-78
2022/12/12 12:10:22;;;;;;;33.25;20.50;;;2.70;79.40;;;;;;4976672;28;20056;-78
2022/12/12 12:13:06;;;;;;;22.77;15.15;;;2.80;79.20;;;;;;4976303;28;20105;-78
2022/12/12 12:15:57;;;;;;;27.48;15.75;;;2.80;79.10;;;;;;4976428;28;20041;-79
2022/12/12 12:18:23;;;;;;;35.45;18.27;;;2.80;79.00;;;;;;4963683;28;20047;-78
2022/12/12 12:21:12;;;;;;;18.15;9.82;;;3.00;79.10;;;;;;4967136;28;20030;-78
2022/12/12 12:24:08;;;;;;;30.65;15.80;;;3.00;78.60;;;;;;4969409;28;20130;-78
2022/12/12 12:26:45;;;;;;;19.80;14.82;;;3.10;78.90;;;;;;4978063;28;20031;-79
2022/12/12 12:29:38;;;;;;;23.40;14.18;;;3.10;78.00;;;;;;4976679;28;20027;-78
2022/12/12 12:32:45;;;;;;;27.08;16.17;;;3.00;78.50;;;;;;4958154;28;20050;-78
2022/12/12 12:35:14;;;;;;;21.42;12.55;;;2.90;78.70;;;;;;4976618;28;20039;-78
2022/12/12 12:38:44;;;;;;;33.50;19.42;;;2.90;78.70;;;;;;4976506;28;20051;-78
2022/12/12 12:41:21;;;;;;;26.00;14.88;;;2.90;78.90;;;;;;4878993;29;20044;-78
2022/12/12 12:44:06;;;;;;;27.17;14.18;;;3.00;78.80;;;;;;4939824;29;20035;-78
2022/12/12 12:46:34;;;;;;;30.30;19.17;;;3.10;78.40;;;;;;4967324;28;20558;-78
2022/12/12 12:49:21;;;;;;;26.42;15.50;;;2.90;78.70;;;;;;4976443;28;20031;-78
2022/12/12 12:52:29;;;;;;;31.73;15.65;;;2.90;78.90;;;;;;4971509;28;20566;-78
2022/12/12 12:54:57;;;;;;;29.65;16.15;;;3.10;79.10;;;;;;4916297;29;20108;-78
2022/12/12 12:57:37;;;;;;;23.27;16.38;;;3.00;78.90;;;;;;4901222;29;20543;-78
2022/12/12 13:00:14;;;;;;;21.67;15.55;;;3.00;78.30;;;;;;4939687;29;20046;-78
2022/12/12 13:02:46;;;;;;;24.27;14.88;;;3.10;78.70;;;;;;4957288;28;20582;-78
2022/12/12 13:05:24;;;;;;;30.90;19.33;;;3.10;78.60;;;;;;4939596;29;20035;-78
2022/12/12 13:08:13;;;;;;;22.65;15.57;;;3.00;77.60;;;;;;4958955;28;20491;-78
2022/12/12 13:10:44;;;;;;;26.88;14.50;;;3.10;77.70;;;;;;4945622;28;20047;-77
2022/12/12 13:13:28;;;;;;;26.52;14.07;;;3.20;77.90;;;;;;4981447;28;20034;-78
2022/12/12 13:16:14;;;;;;;23.20;14.07;;;3.10;77.40;;;;;;4979536;28;20027;-78
2022/12/12 13:18:42;;;;;;;23.65;16.27;;;3.10;77.20;;;;;;4958579;29;20406;-78
2022/12/12 13:21:18;;;;;;;20.98;13.77;;;3.20;77.50;;;;;;4960600;29;20077;-78
2022/12/12 13:23:56;;;;;;;21.90;14.80;;;3.20;76.90;;;;;;4982158;28;20069;-78
2022/12/12 13:26:36;;;;;;;30.13;15.60;;;3.30;77.30;;;;;;4974031;28;20023;-78
2022/12/12 13:29:36;;;;;;;20.10;11.18;;;3.30;77.00;;;;;;4969452;28;20038;-78
2022/12/12 13:32:31;;;;;;;21.67;12.57;;;3.40;76.40;;;;;;4959003;28;20051;-78
2022/12/12 13:35:02;;;;;;;23.75;13.75;;;3.50;76.60;;;;;;4960312;28;20502;-77
2022/12/12 13:37:31;;;;;;;24.52;14.43;;;3.50;76.00;;;;;;4948856;28;20037;-78
2022/12/12 13:39:59;;;;;;;20.30;12.85;;;3.40;76.20;;;;;;4947389;28;20102;-78
2022/12/12 13:42:25;;;;;;;27.15;16.23;;;3.50;76.20;;;;;;4959678;28;20523;-78
2022/12/12 13:44:51;;;;;;;29.05;15.18;;;3.50;76.00;;;;;;4958347;28;20031;-78
2022/12/12 13:47:16;;;;;;;30.42;15.10;;;3.70;76.50;;;;;;4949385;28;20036;-78
2022/12/12 13:49:57;;;;;;;22.67;11.57;;;3.80;75.70;;;;;;4940825;28;20031;-78
2022/12/12 13:52:31;;;;;;;26.02;13.63;;;3.70;74.70;;;;;;4940778;28;20079;-78
2022/12/12 13:55:12;;;;;;;17.98;11.95;;;3.60;74.70;;;;;;4957579;28;20522;-78
2022/12/12 13:57:57;;;;;;;12.18;9.10;;;3.50;75.10;;;;;;4958428;29;20039;-78
2022/12/12 14:00:32;;;;;;;21.77;13.25;;;3.60;75.00;;;;;;4959328;28;20034;-78
2022/12/12 14:03:09;;;;;;;20.50;10.77;;;3.70;75.00;;;;;;4959537;28;20083;-78
2022/12/12 14:05:40;;;;;;;17.55;11.75;;;3.70;74.40;;;;;;4959544;28;20065;-78
2022/12/12 14:08:09;;;;;;;17.35;11.32;;;3.80;74.30;;;;;;4959515;28;20031;-79
2022/12/12 14:10:35;;;;;;;13.35;9.48;;;3.80;74.30;;;;;;4947131;28;20220;-78
2022/12/12 14:13:21;;;;;;;24.35;13.73;;;3.80;74.00;;;;;;4939184;29;20032;-78
2022/12/12 14:15:56;;;;;;;19.75;12.45;;;3.80;74.00;;;;;;4933326;29;20467;-78
2022/12/12 14:18:28;;;;;;;13.15;8.95;;;3.90;73.50;;;;;;4940661;29;20038;-78
2022/12/12 14:21:15;;;;;;;17.55;11.00;;;4.10;74.00;;;;;;4959358;28;20059;-78
2022/12/12 14:23:50;;;;;;;15.60;9.93;;;4.10;73.30;;;;;;4968132;28;20029;-79
2022/12/12 14:26:22;;;;;;;18.55;11.38;;;4.20;72.90;;;;;;4973243;28;20077;-78
2022/12/12 14:29:16;;;;;;;17.65;10.77;;;4.20;72.90;;;;;;4958723;28;20085;-78
2022/12/12 14:32:03;;;;;;;22.38;11.93;;;4.20;72.20;;;;;;4971900;28;20114;-78
2022/12/12 14:35:05;;;;;;;13.57;9.27;;;4.10;71.70;;;;;;4978036;28;20039;-78
2022/12/12 14:37:56;;;;;;;15.10;9.88;;;4.00;71.80;;;;;;4960979;28;20815;-78
2022/12/12 14:40:24;;;;;;;16.77;9.75;;;4.10;72.30;;;;;;4977332;28;20093;-79
2022/12/12 14:43:13;;;;;;;9.93;7.75;;;3.90;71.90;;;;;;4978402;28;20042;-79
2022/12/12 14:45:40;;;;;;;12.10;8.27;;;3.90;71.40;;;;;;4978413;28;20019;-78
2022/12/12 14:48:17;;;;;;;12.85;9.63;;;3.80;71.50;;;;;;4977735;28;20557;-78
2022/12/12 14:50:56;;;;;;;13.85;8.75;;;3.80;71.80;;;;;;4978016;28;20062;-78
2022/12/12 14:53:26;;;;;;;16.00;9.85;;;3.90;72.20;;;;;;4977735;28;20093;-79
2022/12/12 14:55:56;;;;;;;18.85;11.60;;;3.80;71.50;;;;;;4978083;28;20102;-78
2022/12/12 14:58:25;;;;;;;12.13;6.47;;;3.70;71.70;;;;;;4977309;28;20034;-79
2022/12/12 15:00:55;;;;;;;10.63;7.05;;;3.70;71.60;;;;;;4978255;28;20027;-78
2022/12/12 15:03:32;;;;;;;10.52;5.85;;;3.70;71.70;;;;;;4977484;28;20034;-84
2022/12/12 15:06:25;;;;;;;14.93;8.93;;;3.80;71.70;;;;;;4976507;28;20038;-77
2022/12/12 15:08:51;;;;;;;16.05;9.23;;;3.80;71.80;;;;;;4972247;28;20035;-77
2022/12/12 15:11:24;;;;;;;10.85;7.38;;;3.80;71.70;;;;;;4976169;28;20034;-77
2022/12/12 15:13:56;;;;;;;14.15;7.70;;;3.80;71.50;;;;;;4958285;28;20034;-77
2022/12/12 15:16:40;;;;;;;17.00;8.98;;;3.80;71.60;;;;;;4960037;28;20397;-77
2022/12/12 15:19:13;;;;;;;14.43;9.38;;;3.70;71.40;;;;;;4974555;28;20558;-76
2022/12/12 15:21:41;;;;;;;10.55;7.50;;;3.70;71.50;;;;;;4976648;28;20105;-77
2022/12/12 15:24:17;;;;;;;12.73;8.63;;;3.70;70.90;;;;;;4979048;28;20049;-77
2022/12/12 15:26:45;;;;;;;11.90;8.82;;;3.80;72.00;;;;;;4958768;28;20019;-77
2022/12/12 15:29:20;;;;;;;11.52;7.70;;;3.80;71.50;;;;;;4966829;28;20066;-77
2022/12/12 15:31:48;;;;;;;16.25;8.48;;;3.70;70.20;;;;;;4974476;28;20078;-77
2022/12/12 15:34:41;;;;;;;15.40;9.32;;;3.50;70.30;;;;;;4975382;28;20030;-77
2022/12/12 15:37:25;;;;;;;11.70;7.63;;;3.50;71.50;;;;;;4957291;28;20027;-77
2022/12/12 15:40:09;;;;;;;14.35;10.23;;;3.50;70.50;;;;;;4974531;28;20030;-76
2022/12/12 15:42:44;;;;;;;15.45;9.90;;;3.60;71.60;;;;;;4975124;28;20026;-77
2022/12/12 15:45:30;;;;;;;13.38;10.02;;;3.50;70.30;;;;;;4975181;28;20039;-76
2022/12/12 15:47:57;;;;;;;17.60;11.35;;;3.50;70.70;;;;;;4974028;28;20031;-77
2022/12/12 15:50:38;;;;;;;16.00;9.63;;;3.60;71.40;;;;;;4956643;28;20031;-76
2022/12/12 15:53:26;;;;;;;12.77;8.35;;;3.60;71.90;;;;;;4973764;28;20066;-77
2022/12/12 15:56:06;;;;;;;14.77;9.10;;;3.70;71.50;;;;;;4975224;28;20086;-76
2022/12/12 15:58:45;;;;;;;12.18;8.23;;;3.60;70.60;;;;;;4974580;28;20463;-77
2022/12/12 16:01:16;;;;;;;14.25;8.27;;;3.70;71.30;;;;;;4972043;28;20027;-77
2022/12/12 16:03:53;;;;;;;16.42;8.32;;;3.60;70.80;;;;;;4973997;28;20054;-77
2022/12/12 16:06:29;;;;;;;12.82;8.95;;;3.60;71.10;;;;;;4976275;28;20033;-77
2022/12/12 16:08:58;;;;;;;23.17;11.48;;;3.70;71.20;;;;;;4958805;28;20089;-77
2022/12/12 16:11:31;;;;;;;16.42;9.18;;;3.60;71.00;;;;;;4973171;28;20031;-77
2022/12/12 16:13:57;;;;;;;19.95;11.57;;;3.70;71.10;;;;;;4958530;28;20113;-77
2022/12/12 16:16:47;;;;;;;13.18;9.02;;;3.70;71.10;;;;;;4958958;28;20059;-77
2022/12/12 16:19:45;;;;;;;12.05;8.90;;;3.70;71.00;;;;;;4956879;28;20097;-77
2022/12/12 16:22:30;;;;;;;16.15;8.95;;;3.50;70.90;;;;;;4956483;28;20026;-77
2022/12/12 16:25:08;;;;;;;17.20;7.88;;;3.60;70.90;;;;;;4958618;28;20467;-77
2022/12/12 16:27:34;;;;;;;21.17;8.10;;;3.60;71.20;;;;;;4972956;28;20038;-77
2022/12/12 16:29:59;;;;;;;17.02;9.07;;;3.60;71.00;;;;;;4958442;28;20053;-77
2022/12/12 16:32:25;;;;;;;15.05;8.65;;;3.60;71.00;;;;;;4976263;28;20083;-77
2022/12/12 16:34:52;;;;;;;17.17;9.30;;;3.60;70.80;;;;;;4957073;28;20031;-77
2022/12/12 16:37:19;;;;;;;16.60;9.73;;;3.50;70.90;;;;;;4975582;28;20085;-77
2022/12/12 16:39:45;;;;;;;17.40;8.77;;;3.50;71.10;;;;;;4973215;28;20070;-77
2022/12/12 16:42:12;;;;;;;16.75;10.25;;;3.50;70.90;;;;;;4984317;28;20740;-77
2022/12/12 16:44:38;;;;;;;15.32;10.23;;;3.40;70.90;;;;;;4966610;28;20510;-77
2022/12/12 16:47:20;;;;;;;16.23;9.93;;;3.40;70.90;;;;;;4977666;28;20141;-77
2022/12/12 16:49:46;;;;;;;17.67;8.50;;;3.40;70.90;;;;;;4985654;28;20018;-77
2022/12/12 16:52:13;;;;;;;17.95;9.63;;;3.30;71.00;;;;;;4959347;28;20041;-76
2022/12/12 16:54:40;;;;;;;13.05;8.63;;;3.40;71.30;;;;;;4961000;28;20034;-77
2022/12/12 16:57:05;;;;;;;20.08;9.85;;;3.30;70.90;;;;;;4960947;28;20121;-76
2022/12/12 16:59:31;;;;;;;14.27;10.38;;;3.30;71.50;;;;;;4979586;28;20062;-81
2022/12/12 17:02:18;;;;;;;18.38;10.13;;;3.30;71.50;;;;;;4978803;28;20023;-79
2022/12/12 17:04:44;;;;;;;15.25;8.82;;;3.20;71.50;;;;;;4967905;28;20019;-85
2022/12/12 17:07:10;;;;;;;20.92;10.25;;;3.20;71.70;;;;;;4962730;28;20031;-78
2022/12/12 17:09:36;;;;;;;18.00;9.52;;;3.30;71.70;;;;;;4962657;28;20486;-79
2022/12/12 17:12:01;;;;;;;14.75;8.20;;;3.20;71.60;;;;;;4979913;28;20044;-79
2022/12/12 17:14:27;;;;;;;13.63;9.00;;;3.20;71.50;;;;;;4981054;28;20019;-80
2022/12/12 17:16:53;;;;;;;18.58;11.07;;;3.10;71.60;;;;;;4972255;28;20035;-82
2022/12/12 17:19:19;;;;;;;19.88;12.00;;;3.10;71.90;;;;;;4979164;28;20047;-78
2022/12/12 17:21:45;;;;;;;18.20;11.93;;;2.90;72.50;;;;;;4979970;28;20034;-87
2022/12/12 17:24:10;;;;;;;22.17;13.38;;;3.00;72.40;;;;;;4976414;28;20030;-86
2022/12/12 17:26:37;;;;;;;17.58;12.52;;;3.10;72.90;;;;;;4959871;28;20038;-88
2022/12/12 17:29:05;;;;;;;18.80;10.40;;;3.10;72.60;;;;;;4961298;28;20037;-87
2022/12/12 17:31:31;;;;;;;20.20;11.43;;;2.90;73.10;;;;;;4979125;28;20042;-87
2022/12/12 17:33:56;;;;;;;18.58;11.35;;;2.80;73.30;;;;;;4975361;28;20538;-87
2022/12/12 17:36:22;;;;;;;11.88;8.63;;;2.90;73.60;;;;;;4962887;28;20042;-87
2022/12/12 17:38:48;;;;;;;17.33;10.98;;;2.80;73.50;;;;;;4959203;28;20516;-88
2022/12/12 17:41:14;;;;;;;16.48;10.00;;;2.90;73.80;;;;;;4973807;28;20019;-86
2022/12/12 17:43:41;;;;;;;15.38;9.98;;;3.00;73.70;;;;;;4975063;28;20031;-86
2022/12/12 17:46:12;;;;;;;19.33;10.27;;;3.00;73.70;;;;;;4972448;28;20019;-88
2022/12/12 17:48:40;;;;;;;15.60;9.30;;;3.00;73.50;;;;;;4980666;28;20031;-87
2022/12/12 17:51:07;;;;;;;21.33;11.48;;;2.90;73.50;;;;;;4959523;28;20082;-87
2022/12/12 17:53:36;;;;;;;18.10;10.35;;;2.90;74.00;;;;;;4973807;28;20031;-87
2022/12/12 17:56:14;;;;;;;17.43;9.97;;;2.90;73.60;;;;;;4978781;28;20487;-83
2022/12/12 17:58:43;;;;;;;22.23;12.80;;;2.90;73.90;;;;;;4972582;28;20289;-88
2022/12/12 18:01:30;;;;;;;21.80;11.93;;;3.00;73.80;;;;;;4982453;28;20105;-88
2022/12/12 18:03:57;;;;;;;15.43;10.18;;;2.90;73.90;;;;;;4958509;28;20030;-85
2022/12/12 18:06:24;;;;;;;15.52;8.45;;;2.90;73.90;;;;;;4998675;28;20041;-87
2022/12/12 18:08:51;;;;;;;26.05;12.93;;;2.90;73.80;;;;;;4983854;28;20027;-85
2022/12/12 18:11:23;;;;;;;16.15;10.13;;;2.80;74.30;;;;;;4961215;28;20047;-78
2022/12/12 18:13:49;;;;;;;21.67;12.57;;;2.90;74.00;;;;;;4969691;28;20037;-83
2022/12/12 18:16:16;;;;;;;13.02;7.07;;;2.90;74.10;;;;;;4990316;28;20031;-85
2022/12/12 18:18:43;;;;;;;17.92;10.75;;;3.00;73.70;;;;;;4980568;28;20030;-82
2022/12/12 18:21:16;;;;;;;20.83;9.70;;;2.90;74.30;;;;;;4978181;28;20030;-83
2022/12/12 18:23:41;;;;;;;17.00;10.40;;;3.00;74.20;;;;;;4957842;28;20434;-85
2022/12/12 18:26:12;;;;;;;18.42;11.43;;;3.00;74.20;;;;;;4964281;28;20092;-78
2022/12/12 18:28:38;;;;;;;17.77;9.80;;;3.00;73.80;;;;;;4973915;28;21627;-85
2022/12/12 18:31:04;;;;;;;15.63;8.73;;;3.00;73.80;;;;;;4975303;28;20105;-79
2022/12/12 18:33:31;;;;;;;17.77;10.52;;;3.00;73.70;;;;;;4988700;28;20019;-84
2022/12/12 18:36:05;;;;;;;19.40;9.60;;;2.90;73.00;;;;;;4963785;28;20172;-80
2022/12/12 18:38:31;;;;;;;22.15;10.80;;;2.80;73.80;;;;;;4967680;28;20062;-87